Time;durP1;ratioP1;P1;durP2;ratioP2;P2;SDS_P1;SDS_P2;PMS_P1;PMS_P2;Temp;Humidity;BMP_temperature;BMP_pressure;BME280_temperature;BME280_humidity;BME280_pressure;Samples;Min_cycle;Max_cycle;Signal;HPM_P1;HPM_P2
2022/12/01 00:01:20;;;;;;;22.03;13.40;;;;;;;;;;5036957;28;20216;-40
2022/12/01 00:03:47;;;;;;;19.93;13.37;;;;;;;;;;5037540;28;20243;-42
2022/12/01 00:06:18;;;;;;;23.00;13.37;;;;;;;;;;5037514;28;20212;-41
2022/12/01 00:11:35;;;;;;;22.97;14.23;;;;;;;;;;5037219;28;20193;-41
2022/12/01 00:14:02;;;;;;;22.33;13.43;;;;;;;;;;5037208;28;20228;-41
2022/12/01 00:16:29;;;;;;;23.57;14.10;;;;;;;;;;5037287;28;20256;-42
2022/12/01 00:18:56;;;;;;;22.77;13.07;;;;;;;;;;5036711;28;20201;-43
2022/12/01 00:21:25;;;;;;;24.30;14.23;;;;;;;;;;5036965;28;20240;-41
2022/12/01 00:23:54;;;;;;;25.17;14.00;;;;;;;;;;5036447;28;20205;-42
2022/12/01 00:26:22;;;;;;;23.87;13.80;;;;;;;;;;5036730;28;20218;-41
2022/12/01 00:28:50;;;;;;;27.40;14.87;;;;;;;;;;5036656;28;20193;-41
2022/12/01 00:31:18;;;;;;;23.63;14.50;;;;;;;;;;5036891;28;20208;-41
2022/12/01 00:33:45;;;;;;;25.17;13.87;;;;;;;;;;5036655;28;20220;-42
2022/12/01 00:36:12;;;;;;;23.80;13.70;;;;;;;;;;5036246;28;20196;-40
2022/12/01 00:38:38;;;;;;;21.30;12.73;;;;;;;;;;5036851;28;20586;-42
2022/12/01 00:41:06;;;;;;;23.47;13.83;;;;;;;;;;5036814;28;20211;-42
2022/12/01 00:43:32;;;;;;;22.57;13.07;;;;;;;;;;5036758;28;20205;-41
2022/12/01 00:46:00;;;;;;;23.43;14.13;;;;;;;;;;5036760;28;20581;-40
2022/12/01 00:48:27;;;;;;;23.43;13.63;;;;;;;;;;5036443;28;20243;-43
2022/12/01 00:50:55;;;;;;;23.90;14.67;;;;;;;;;;5036836;28;20212;-40
2022/12/01 00:53:23;;;;;;;24.87;13.97;;;;;;;;;;5036453;28;20200;-41
2022/12/01 00:55:52;;;;;;;21.33;13.60;;;;;;;;;;5036424;28;20208;-41
2022/12/01 00:58:20;;;;;;;24.50;14.40;;;;;;;;;;5036630;28;20232;-42
2022/12/01 01:00:48;;;;;;;25.13;15.13;;;;;;;;;;5036310;28;20224;-42
2022/12/01 01:03:15;;;;;;;23.33;13.53;;;;;;;;;;5035728;28;20521;-43
2022/12/01 01:05:42;;;;;;;27.53;14.67;;;;;;;;;;5036148;28;20266;-42
2022/12/01 01:08:11;;;;;;;25.37;13.93;;;;;;;;;;5036284;28;20204;-40
2022/12/01 01:10:40;;;;;;;24.07;14.13;;;;;;;;;;5036310;28;20645;-40
2022/12/01 01:13:07;;;;;;;25.77;14.77;;;;;;;;;;5036311;28;20205;-41
2022/12/01 01:15:34;;;;;;;21.13;12.17;;;;;;;;;;5035891;28;20270;-40
2022/12/01 01:18:04;;;;;;;21.37;12.57;;;;;;;;;;5035924;28;20229;-42
2022/12/01 01:20:31;;;;;;;20.07;12.43;;;;;;;;;;5035860;28;20213;-40
2022/12/01 01:22:58;;;;;;;22.60;13.03;;;;;;;;;;5035808;28;20228;-40
2022/12/01 01:25:25;;;;;;;18.23;11.53;;;;;;;;;;5035634;28;20668;-45
2022/12/01 01:27:52;;;;;;;20.43;12.53;;;;;;;;;;5035379;28;20218;-41
2022/12/01 01:30:20;;;;;;;19.67;12.87;;;;;;;;;;5035548;28;20243;-40
2022/12/01 01:32:47;;;;;;;21.83;12.77;;;;;;;;;;5036259;28;20611;-42
2022/12/01 01:35:14;;;;;;;26.00;14.83;;;;;;;;;;5035446;28;20205;-41
2022/12/01 01:37:40;;;;;;;27.63;14.60;;;;;;;;;;5035812;28;20224;-41
2022/12/01 01:40:08;;;;;;;33.73;17.23;;;;;;;;;;5035811;28;20205;-40
2022/12/01 01:42:35;;;;;;;29.73;17.70;;;;;;;;;;5035411;28;20208;-41
2022/12/01 01:45:02;;;;;;;32.70;17.60;;;;;;;;;;5035846;28;20201;-40
2022/12/01 01:47:32;;;;;;;31.47;17.03;;;;;;;;;;5035492;28;20216;-40
2022/12/01 01:50:05;;;;;;;31.70;17.13;;;;;;;;;;5035267;28;20212;-41
2022/12/01 01:52:35;;;;;;;27.60;16.70;;;;;;;;;;5035482;28;20276;-41
2022/12/01 01:55:02;;;;;;;29.93;16.73;;;;;;;;;;5035541;28;20211;-40
2022/12/01 01:57:31;;;;;;;32.47;17.00;;;;;;;;;;5034740;28;20228;-40
2022/12/01 02:00:07;;;;;;;29.90;16.47;;;;;;;;;;5034506;28;20641;-41
2022/12/01 02:02:43;;;;;;;31.10;15.97;;;;;;;;;;5035351;28;20279;-41
2022/12/01 02:05:15;;;;;;;28.80;16.63;;;;;;;;;;5034664;28;20556;-42
2022/12/01 02:07:42;;;;;;;25.10;15.60;;;;;;;;;;5034161;28;20303;-40
2022/12/01 02:10:11;;;;;;;27.40;16.47;;;;;;;;;;5035201;28;20208;-41
2022/12/01 02:13:01;;;;;;;28.73;15.07;;;;;;;;;;5035184;28;20266;-40
2022/12/01 02:15:53;;;;;;;28.10;15.93;;;;;;;;;;5033507;28;20212;-41
2022/12/01 02:18:36;;;;;;;31.77;17.27;;;;;;;;;;5033764;28;20213;-42
2022/12/01 02:21:28;;;;;;;28.67;16.73;;;;;;;;;;5032846;28;20255;-42
2022/12/01 02:24:31;;;;;;;30.73;17.17;;;;;;;;;;5033741;28;20200;-41
2022/12/01 02:27:05;;;;;;;29.90;16.60;;;;;;;;;;5033765;28;20203;-43
2022/12/01 02:29:53;;;;;;;27.53;15.67;;;;;;;;;;5032691;28;20204;-41
2022/12/01 02:32:30;;;;;;;27.80;15.93;;;;;;;;;;5033781;28;20514;-41
2022/12/01 02:35:19;;;;;;;28.33;16.00;;;;;;;;;;5033496;28;20196;-41
2022/12/01 02:38:21;;;;;;;29.17;17.00;;;;;;;;;;5034031;28;20294;-41
2022/12/01 02:41:00;;;;;;;24.30;14.00;;;;;;;;;;4977357;28;20735;-41
2022/12/01 02:43:42;;;;;;;27.70;15.53;;;;;;;;;;4993885;28;20202;-41
2022/12/01 02:46:40;;;;;;;24.73;14.60;;;;;;;;;;4977659;28;20210;-41
2022/12/01 02:49:14;;;;;;;25.67;15.33;;;;;;;;;;4976395;28;20276;-41
2022/12/01 02:51:43;;;;;;;30.20;15.80;;;;;;;;;;4993543;28;20212;-41
2022/12/01 02:54:12;;;;;;;29.53;15.83;;;;;;;;;;4993408;28;20530;-40
2022/12/01 02:56:39;;;;;;;27.63;15.83;;;;;;;;;;4993862;28;20293;-40
2022/12/01 02:59:10;;;;;;;29.60;15.67;;;;;;;;;;4993647;28;20230;-41
2022/12/01 03:01:55;;;;;;;25.23;15.30;;;;;;;;;;4993555;28;20198;-41
2022/12/01 03:04:52;;;;;;;30.13;15.57;;;;;;;;;;4994263;28;20201;-43
2022/12/01 03:07:45;;;;;;;29.93;16.53;;;;;;;;;;4991958;28;20356;-41
2022/12/01 03:10:29;;;;;;;29.80;15.87;;;;;;;;;;4977710;28;20562;-40
2022/12/01 03:13:18;;;;;;;30.50;16.70;;;;;;;;;;4993074;28;20234;-42
2022/12/01 03:15:52;;;;;;;30.23;15.60;;;;;;;;;;5002055;28;20656;-43
2022/12/01 03:18:39;;;;;;;37.27;17.43;;;;;;;;;;5034532;28;20267;-41
2022/12/01 03:21:20;;;;;;;28.97;16.20;;;;;;;;;;5032515;28;20574;-44
2022/12/01 03:23:52;;;;;;;31.67;16.13;;;;;;;;;;5034329;28;20220;-40
2022/12/01 03:26:20;;;;;;;30.03;16.70;;;;;;;;;;5033842;28;20197;-41
2022/12/01 03:28:51;;;;;;;30.27;15.17;;;;;;;;;;5037008;28;20239;-44
2022/12/01 03:31:23;;;;;;;29.40;15.80;;;;;;;;;;5037069;28;20200;-41
2022/12/01 03:33:54;;;;;;;30.07;16.20;;;;;;;;;;5037541;28;20204;-41
2022/12/01 03:36:27;;;;;;;32.20;17.27;;;;;;;;;;5037490;28;20216;-41
2022/12/01 03:39:01;;;;;;;29.47;15.77;;;;;;;;;;5038162;28;20221;-41
2022/12/01 03:41:34;;;;;;;36.57;17.60;;;;;;;;;;5037151;28;20216;-40
2022/12/01 03:44:10;;;;;;;32.17;17.17;;;;;;;;;;5036968;28;20196;-41
2022/12/01 03:46:46;;;;;;;38.67;18.40;;;;;;;;;;5036711;28;20208;-40
2022/12/01 03:49:14;;;;;;;36.23;17.80;;;;;;;;;;5036754;28;20219;-42
2022/12/01 03:51:56;;;;;;;36.10;18.57;;;;;;;;;;5036565;28;20200;-41
2022/12/01 03:54:36;;;;;;;27.90;16.67;;;;;;;;;;5037129;28;20205;-40
2022/12/01 03:57:08;;;;;;;32.40;16.80;;;;;;;;;;5037119;28;20543;-40
2022/12/01 03:59:36;;;;;;;29.70;16.63;;;;;;;;;;5036065;28;20292;-44
2022/12/01 04:02:07;;;;;;;34.97;17.13;;;;;;;;;;5036624;28;20205;-40
2022/12/01 04:04:34;;;;;;;33.40;17.93;;;;;;;;;;5035904;28;20288;-41
2022/12/01 04:07:01;;;;;;;30.10;17.50;;;;;;;;;;5037270;28;20208;-40
2022/12/01 04:09:28;;;;;;;39.57;18.53;;;;;;;;;;5037537;28;20627;-40
2022/12/01 04:14:40;;;;;;;38.77;18.63;;;;;;;;;;5036387;28;20283;-41
2022/12/01 04:17:07;;;;;;;33.80;19.87;;;;;;;;;;5037029;28;20529;-42
2022/12/01 04:19:34;;;;;;;34.97;18.50;;;;;;;;;;5037184;28;20225;-43
2022/12/01 04:22:02;;;;;;;30.83;16.90;;;;;;;;;;5036100;28;20237;-41
2022/12/01 04:24:29;;;;;;;28.70;16.67;;;;;;;;;;5036695;28;20288;-42
2022/12/01 04:26:56;;;;;;;33.80;18.27;;;;;;;;;;5036596;28;20215;-41
2022/12/01 04:29:22;;;;;;;29.40;16.13;;;;;;;;;;5037054;28;20205;-41
2022/12/01 04:31:49;;;;;;;29.33;17.03;;;;;;;;;;5034973;28;20598;-41
2022/12/01 04:34:16;;;;;;;31.47;16.33;;;;;;;;;;5036447;28;20211;-43
2022/12/01 04:36:44;;;;;;;29.57;16.03;;;;;;;;;;5035818;28;20197;-40
2022/12/01 04:39:10;;;;;;;25.73;14.90;;;;;;;;;;5035931;28;20240;-42
2022/12/01 04:41:37;;;;;;;30.30;16.77;;;;;;;;;;5030566;28;20193;-41
2022/12/01 04:44:04;;;;;;;27.20;16.00;;;;;;;;;;5036114;28;20511;-42
2022/12/01 04:46:31;;;;;;;34.67;18.10;;;;;;;;;;5035502;28;20227;-40
2022/12/01 04:48:58;;;;;;;27.20;15.47;;;;;;;;;;5034512;28;20209;-41
2022/12/01 04:51:25;;;;;;;30.60;16.57;;;;;;;;;;5034167;28;20205;-41
2022/12/01 04:53:52;;;;;;;24.50;14.63;;;;;;;;;;5036225;28;20204;-40
2022/12/01 04:56:19;;;;;;;24.60;15.10;;;;;;;;;;5036239;28;20528;-42
2022/12/01 04:58:46;;;;;;;27.23;15.13;;;;;;;;;;5036303;28;20294;-41
2022/12/01 05:01:15;;;;;;;25.40;14.80;;;;;;;;;;5032992;28;20235;-41
2022/12/01 05:03:44;;;;;;;25.50;14.83;;;;;;;;;;5035506;28;20209;-41
2022/12/01 05:06:14;;;;;;;26.97;15.30;;;;;;;;;;5035657;28;20228;-42
2022/12/01 05:08:41;;;;;;;27.77;14.80;;;;;;;;;;5036758;28;20227;-41
2022/12/01 05:11:11;;;;;;;27.10;15.00;;;;;;;;;;5022381;28;20670;-41
2022/12/01 05:13:39;;;;;;;31.87;15.70;;;;;;;;;;5027931;28;20578;-40
2022/12/01 05:16:08;;;;;;;25.23;14.33;;;;;;;;;;5032945;28;20298;-40
2022/12/01 05:18:35;;;;;;;24.03;13.20;;;;;;;;;;5027315;28;20315;-40
2022/12/01 05:21:05;;;;;;;18.83;10.93;;;;;;;;;;5024040;28;20248;-41
2022/12/01 05:23:33;;;;;;;21.37;12.40;;;;;;;;;;5033670;28;20291;-41
2022/12/01 05:26:01;;;;;;;21.50;12.33;;;;;;;;;;5032140;28;20303;-45
2022/12/01 05:28:28;;;;;;;22.37;13.20;;;;;;;;;;5039765;28;20231;-40
2022/12/01 05:30:56;;;;;;;23.63;12.53;;;;;;;;;;5054536;28;20216;-41
2022/12/01 05:33:23;;;;;;;22.27;13.77;;;;;;;;;;5055207;28;20282;-41
2022/12/01 05:35:51;;;;;;;26.73;14.30;;;;;;;;;;5040773;28;20213;-44
2022/12/01 05:38:19;;;;;;;23.83;14.30;;;;;;;;;;5034209;28;20259;-40
2022/12/01 05:40:53;;;;;;;28.67;13.83;;;;;;;;;;5034659;28;20232;-43
2022/12/01 05:43:22;;;;;;;20.33;12.67;;;;;;;;;;5030853;28;20209;-40
2022/12/01 05:45:55;;;;;;;23.23;13.70;;;;;;;;;;5026969;28;20239;-41
2022/12/01 05:48:23;;;;;;;20.17;13.13;;;;;;;;;;5033793;28;20327;-42
2022/12/01 05:50:50;;;;;;;21.93;12.20;;;;;;;;;;5024577;28;20650;-44
2022/12/01 05:53:18;;;;;;;21.73;13.27;;;;;;;;;;5013219;28;20229;-42
2022/12/01 05:55:45;;;;;;;17.97;9.30;;;;;;;;;;5014649;28;20217;-42
2022/12/01 05:58:12;;;;;;;15.17;8.83;;;;;;;;;;5013685;28;20233;-42
2022/12/01 06:00:39;;;;;;;13.50;7.27;;;;;;;;;;5013046;28;20283;-41
2022/12/01 06:03:12;;;;;;;12.30;7.60;;;;;;;;;;5013580;28;20230;-42
2022/12/01 06:05:39;;;;;;;11.57;7.37;;;;;;;;;;5014482;28;20686;-44
2022/12/01 06:08:06;;;;;;;14.50;9.17;;;;;;;;;;5014293;28;20233;-42
2022/12/01 06:10:34;;;;;;;14.60;8.60;;;;;;;;;;5014316;28;20237;-41
2022/12/01 06:13:01;;;;;;;14.07;8.70;;;;;;;;;;5014109;28;20236;-42
2022/12/01 06:15:28;;;;;;;15.63;9.17;;;;;;;;;;5015860;28;20232;-44
2022/12/01 06:17:57;;;;;;;17.03;10.10;;;;;;;;;;5033158;28;20233;-46
2022/12/01 06:20:25;;;;;;;18.27;9.47;;;;;;;;;;5033025;28;20286;-44
2022/12/01 06:22:51;;;;;;;17.10;10.17;;;;;;;;;;5032640;28;20243;-43
2022/12/01 06:25:19;;;;;;;16.23;10.20;;;;;;;;;;5032395;28;20708;-42
2022/12/01 06:27:46;;;;;;;18.53;9.97;;;;;;;;;;5025349;28;20324;-45
2022/12/01 06:30:13;;;;;;;19.13;11.00;;;;;;;;;;5022394;28;20221;-46
2022/12/01 06:32:40;;;;;;;23.43;11.50;;;;;;;;;;5021887;28;20247;-44
2022/12/01 06:35:07;;;;;;;21.30;11.70;;;;;;;;;;5022953;28;20213;-46
2022/12/01 06:37:34;;;;;;;21.30;11.90;;;;;;;;;;5021053;28;20218;-43
2022/12/01 06:40:01;;;;;;;25.60;13.50;;;;;;;;;;5015690;28;20661;-44
2022/12/01 06:42:30;;;;;;;23.70;14.30;;;;;;;;;;5022526;28;20213;-47
2022/12/01 06:44:57;;;;;;;28.87;14.40;;;;;;;;;;5017080;28;20258;-44
2022/12/01 06:47:24;;;;;;;25.90;14.10;;;;;;;;;;5022153;28;20229;-44
2022/12/01 06:49:51;;;;;;;23.33;13.17;;;;;;;;;;5021901;28;20224;-43
2022/12/01 06:52:18;;;;;;;23.67;12.27;;;;;;;;;;5022656;28;20212;-43
2022/12/01 06:54:45;;;;;;;27.33;14.47;;;;;;;;;;5023481;28;20728;-42
2022/12/01 06:57:12;;;;;;;26.07;14.50;;;;;;;;;;5022298;28;20217;-42
2022/12/01 06:59:39;;;;;;;27.17;14.47;;;;;;;;;;5023575;28;20649;-42
2022/12/01 07:02:09;;;;;;;24.40;13.30;;;;;;;;;;5025160;28;20209;-42
2022/12/01 07:04:36;;;;;;;24.33;13.20;;;;;;;;;;5025622;28;20670;-45
2022/12/01 07:07:06;;;;;;;27.77;13.93;;;;;;;;;;5025522;28;20236;-49
2022/12/01 07:09:34;;;;;;;21.63;11.93;;;;;;;;;;5025574;28;20252;-43
2022/12/01 07:12:01;;;;;;;27.10;12.30;;;;;;;;;;5024688;28;20217;-43
2022/12/01 07:14:29;;;;;;;16.27;9.53;;;;;;;;;;5026665;28;20240;-43
2022/12/01 07:16:59;;;;;;;18.27;10.77;;;;;;;;;;5025183;28;20293;-43
2022/12/01 07:19:26;;;;;;;21.17;11.70;;;;;;;;;;5025684;28;20361;-42
2022/12/01 07:21:53;;;;;;;22.53;11.90;;;;;;;;;;5026730;28;20240;-47
2022/12/01 07:24:20;;;;;;;19.67;11.20;;;;;;;;;;5024867;28;20668;-42
2022/12/01 07:26:47;;;;;;;19.53;11.27;;;;;;;;;;5026487;28;20228;-46
2022/12/01 07:29:14;;;;;;;17.87;10.87;;;;;;;;;;5026730;28;20232;-44
2022/12/01 07:31:41;;;;;;;20.80;11.33;;;;;;;;;;5024642;28;20304;-47
2022/12/01 07:34:10;;;;;;;18.43;11.77;;;;;;;;;;5026131;28;20216;-43
2022/12/01 07:36:37;;;;;;;18.07;10.20;;;;;;;;;;5024741;28;20221;-44
2022/12/01 07:39:06;;;;;;;18.53;10.77;;;;;;;;;;5027766;28;20232;-49
2022/12/01 07:41:33;;;;;;;15.37;10.27;;;;;;;;;;5025293;28;20303;-45
2022/12/01 07:44:01;;;;;;;15.67;9.23;;;;;;;;;;5026687;28;20224;-44
2022/12/01 07:46:28;;;;;;;24.10;11.87;;;;;;;;;;5024078;28;20212;-44
2022/12/01 07:48:56;;;;;;;18.33;10.00;;;;;;;;;;5026595;28;20229;-45
2022/12/01 07:51:23;;;;;;;14.30;9.53;;;;;;;;;;5025312;28;20553;-42
2022/12/01 07:53:52;;;;;;;15.80;9.80;;;;;;;;;;5025301;28;20236;-47
2022/12/01 07:56:20;;;;;;;16.50;9.67;;;;;;;;;;5027816;28;20292;-43
2022/12/01 07:58:47;;;;;;;18.87;11.57;;;;;;;;;;5025412;28;20311;-42
2022/12/01 08:01:18;;;;;;;14.03;8.97;;;;;;;;;;5021957;28;20225;-42
2022/12/01 08:03:48;;;;;;;15.97;9.83;;;;;;;;;;5025535;28;20676;-45
2022/12/01 08:06:15;;;;;;;18.50;9.97;;;;;;;;;;5026552;28;20216;-42
2022/12/01 08:08:42;;;;;;;14.67;9.03;;;;;;;;;;5033381;28;20225;-42
2022/12/01 08:11:20;;;;;;;27.57;12.27;;;;;;;;;;5026077;28;20228;-43
2022/12/01 08:13:48;;;;;;;14.63;9.07;;;;;;;;;;5022243;28;20372;-47
2022/12/01 08:16:18;;;;;;;14.30;9.73;;;;;;;;;;5024184;28;20537;-43
2022/12/01 08:18:46;;;;;;;15.77;10.07;;;;;;;;;;5024394;28;20229;-48
2022/12/01 08:21:14;;;;;;;16.20;9.70;;;;;;;;;;5023837;28;20555;-42
2022/12/01 08:23:42;;;;;;;16.70;9.47;;;;;;;;;;5024547;28;20228;-43
2022/12/01 08:26:15;;;;;;;18.67;9.67;;;;;;;;;;5025950;28;20660;-45
2022/12/01 08:28:42;;;;;;;13.13;8.53;;;;;;;;;;5025377;28;20217;-45
2022/12/01 08:31:14;;;;;;;13.07;8.27;;;;;;;;;;5023881;28;20244;-43
2022/12/01 08:33:41;;;;;;;14.37;8.83;;;;;;;;;;5024693;28;20283;-43
2022/12/01 08:36:08;;;;;;;21.30;9.77;;;;;;;;;;5024261;28;20224;-46
2022/12/01 08:38:35;;;;;;;14.43;9.20;;;;;;;;;;5025763;28;20216;-43
2022/12/01 08:41:05;;;;;;;14.93;8.83;;;;;;;;;;5024700;28;20694;-43
2022/12/01 08:43:33;;;;;;;17.27;10.17;;;;;;;;;;5024183;28;20221;-42
2022/12/01 08:46:19;;;;;;;17.57;10.63;;;;;;;;;;5024163;28;20217;-45
2022/12/01 08:48:47;;;;;;;18.07;10.27;;;;;;;;;;5024472;28;20282;-47
2022/12/01 08:51:15;;;;;;;16.13;10.30;;;;;;;;;;5025812;28;20221;-42
2022/12/01 08:53:45;;;;;;;16.87;10.97;;;;;;;;;;5025874;28;20209;-42
2022/12/01 08:56:14;;;;;;;17.37;10.23;;;;;;;;;;5025971;28;20225;-45
2022/12/01 08:58:41;;;;;;;20.77;11.47;;;;;;;;;;5024589;28;20217;-43
2022/12/01 09:01:10;;;;;;;26.03;14.77;;;;;;;;;;5021977;28;20201;-45
2022/12/01 09:03:38;;;;;;;27.27;17.07;;;;;;;;;;5021444;28;20200;-43
2022/12/01 09:06:13;;;;;;;22.30;12.63;;;;;;;;;;5025938;28;20193;-42
2022/12/01 09:08:40;;;;;;;26.77;10.83;;;;;;;;;;5024592;28;20496;-42
2022/12/01 09:11:12;;;;;;;27.90;11.90;;;;;;;;;;5024667;28;20212;-42
2022/12/01 09:13:40;;;;;;;20.30;9.67;;;;;;;;;;5023811;28;20272;-46
2022/12/01 09:16:10;;;;;;;17.73;9.07;;;;;;;;;;5024406;28;20197;-43
2022/12/01 09:18:38;;;;;;;14.53;8.63;;;;;;;;;;5024097;28;20244;-41
2022/12/01 09:21:20;;;;;;;22.60;11.37;;;;;;;;;;5017199;28;20229;-43
2022/12/01 09:23:48;;;;;;;49.30;25.57;;;;;;;;;;5016046;28;20201;-42
2022/12/01 09:26:17;;;;;;;112.83;55.17;;;;;;;;;;5016126;28;20656;-43
2022/12/01 09:28:46;;;;;;;128.13;53.27;;;;;;;;;;5016102;28;20210;-42
2022/12/01 09:31:14;;;;;;;150.40;71.87;;;;;;;;;;5016217;28;20201;-43
2022/12/01 09:33:41;;;;;;;199.87;103.20;;;;;;;;;;5016008;28;20201;-43
2022/12/01 09:36:08;;;;;;;184.57;110.03;;;;;;;;;;5016012;28;20299;-42
2022/12/01 09:38:37;;;;;;;146.37;97.27;;;;;;;;;;5015822;28;20220;-45
2022/12/01 09:41:31;;;;;;;48.80;29.87;;;;;;;;;;5015790;28;20264;-43
2022/12/01 09:44:04;;;;;;;24.60;12.40;;;;;;;;;;5008942;28;20197;-47
2022/12/01 09:46:39;;;;;;;24.97;11.23;;;;;;;;;;5018815;28;20231;-42
2022/12/01 09:49:14;;;;;;;26.93;11.90;;;;;;;;;;5028888;28;20228;-42
2022/12/01 09:51:41;;;;;;;24.27;11.70;;;;;;;;;;5023746;28;20252;-44
2022/12/01 09:54:12;;;;;;;28.50;11.97;;;;;;;;;;5028920;28;20252;-47
2022/12/01 09:56:46;;;;;;;21.53;10.40;;;;;;;;;;5024225;28;20332;-47
2022/12/01 09:59:22;;;;;;;16.77;8.57;;;;;;;;;;5039761;28;20741;-45
2022/12/01 10:01:54;;;;;;;20.17;10.10;;;;;;;;;;5026676;28;20236;-50
2022/12/01 10:04:38;;;;;;;28.50;14.80;;;;;;;;;;5032237;28;20231;-43
2022/12/01 10:07:19;;;;;;;70.33;30.43;;;;;;;;;;5031576;28;20606;-46
2022/12/01 10:09:52;;;;;;;39.17;16.10;;;;;;;;;;5033809;28;20286;-42
2022/12/01 10:12:26;;;;;;;13.60;7.93;;;;;;;;;;5032140;28;20225;-42
2022/12/01 10:15:26;;;;;;;12.23;7.40;;;;;;;;;;5033084;28;20220;-45
2022/12/01 10:18:24;;;;;;;13.90;7.73;;;;;;;;;;5019143;28;20256;-44
2022/12/01 10:21:11;;;;;;;13.30;7.43;;;;;;;;;;5034562;28;20232;-42
2022/12/01 10:23:56;;;;;;;16.53;7.90;;;;;;;;;;5021934;28;20220;-43
2022/12/01 10:26:31;;;;;;;22.83;11.83;;;;;;;;;;5022221;28;20551;-40
2022/12/01 10:29:49;;;;;;;16.30;8.43;;;;;;;;;;5014171;28;20334;-46
2022/12/01 10:32:18;;;;;;;11.53;7.27;;;;;;;;;;4947942;28;20590;-42
2022/12/01 10:34:46;;;;;;;58.77;19.90;;;;;;;;;;5019790;28;20221;-42
2022/12/01 10:37:25;;;;;;;18.80;9.73;;;;;;;;;;5013269;28;20248;-47
2022/12/01 10:39:54;;;;;;;10.67;7.23;;;;;;;;;;5020662;28;20213;-42
2022/12/01 10:42:33;;;;;;;15.73;7.70;;;;;;;;;;5031789;28;20271;-44
2022/12/01 10:45:03;;;;;;;11.77;7.60;;;;;;;;;;5014854;28;20217;-46
2022/12/01 10:47:30;;;;;;;13.83;7.00;;;;;;;;;;5012332;28;20239;-42
2022/12/01 10:49:57;;;;;;;13.70;7.33;;;;;;;;;;5021162;28;20221;-48
2022/12/01 10:52:38;;;;;;;19.57;9.20;;;;;;;;;;5030796;28;20231;-44
2022/12/01 10:55:29;;;;;;;26.33;11.07;;;;;;;;;;5028399;28;20236;-42
2022/12/01 10:57:59;;;;;;;65.87;25.90;;;;;;;;;;5023752;28;20222;-45
2022/12/01 11:00:36;;;;;;;12.20;7.37;;;;;;;;;;5025174;28;20204;-45
2022/12/01 11:03:29;;;;;;;98.80;32.03;;;;;;;;;;5024281;28;20225;-45
2022/12/01 11:06:00;;;;;;;18.80;10.20;;;;;;;;;;5023532;28;20633;-46
2022/12/01 11:08:50;;;;;;;15.10;8.40;;;;;;;;;;5021978;28;20204;-44
2022/12/01 11:11:30;;;;;;;15.57;7.93;;;;;;;;;;5022904;28;20190;-45
2022/12/01 11:14:01;;;;;;;11.77;7.50;;;;;;;;;;5022515;28;20200;-42
2022/12/01 11:16:38;;;;;;;11.50;7.47;;;;;;;;;;5024827;28;20197;-42
2022/12/01 11:19:08;;;;;;;13.23;7.73;;;;;;;;;;5021879;28;20204;-44
2022/12/01 11:21:45;;;;;;;13.73;8.20;;;;;;;;;;5022395;28;20243;-47
2022/12/01 11:24:43;;;;;;;19.47;9.53;;;;;;;;;;5022203;28;20186;-44
2022/12/01 11:27:18;;;;;;;15.73;8.97;;;;;;;;;;5024166;28;20198;-42
2022/12/01 11:29:48;;;;;;;15.80;9.07;;;;;;;;;;5023149;28;20213;-43
2022/12/01 11:32:26;;;;;;;15.27;8.60;;;;;;;;;;5022609;28;20518;-45
2022/12/01 11:35:02;;;;;;;17.23;9.47;;;;;;;;;;5021755;28;20232;-42
2022/12/01 11:37:47;;;;;;;17.30;9.30;;;;;;;;;;5022339;28;20203;-42
2022/12/01 11:40:45;;;;;;;14.43;8.60;;;;;;;;;;5023539;28;20224;-46
2022/12/01 11:43:24;;;;;;;13.97;8.87;;;;;;;;;;5022126;28;20273;-45
2022/12/01 11:45:53;;;;;;;14.37;8.70;;;;;;;;;;5019936;28;20201;-43
2022/12/01 11:48:26;;;;;;;14.80;7.90;;;;;;;;;;5026067;28;20277;-43
2022/12/01 11:51:13;;;;;;;15.53;8.47;;;;;;;;;;5007255;28;20201;-42
2022/12/01 11:53:42;;;;;;;14.37;8.90;;;;;;;;;;5018991;28;20186;-44
2022/12/01 11:56:22;;;;;;;16.47;9.63;;;;;;;;;;5016480;28;20213;-43
2022/12/01 11:59:00;;;;;;;12.73;7.93;;;;;;;;;;5016662;28;20193;-44
2022/12/01 12:01:47;;;;;;;14.30;8.73;;;;;;;;;;5016296;28;20205;-45
2022/12/01 12:04:22;;;;;;;13.80;8.20;;;;;;;;;;5017555;28;20285;-44
2022/12/01 12:06:58;;;;;;;12.77;7.53;;;;;;;;;;5016543;28;20184;-41
2022/12/01 12:09:50;;;;;;;15.83;8.20;;;;;;;;;;5027256;28;20287;-43
2022/12/01 12:12:53;;;;;;;14.73;8.80;;;;;;;;;;5037172;28;20188;-43
2022/12/01 12:15:33;;;;;;;13.93;8.30;;;;;;;;;;5037774;28;20184;-43
2022/12/01 12:18:24;;;;;;;17.97;9.13;;;;;;;;;;5036550;28;20197;-42
2022/12/01 12:21:14;;;;;;;16.07;9.00;;;;;;;;;;5037319;28;20228;-42
2022/12/01 12:23:54;;;;;;;17.20;8.70;;;;;;;;;;5037973;28;20209;-43
2022/12/01 12:26:25;;;;;;;14.73;8.20;;;;;;;;;;5036977;28;20200;-41
2022/12/01 12:29:11;;;;;;;12.87;7.83;;;;;;;;;;5036667;28;20585;-45
2022/12/01 12:32:01;;;;;;;12.17;7.93;;;;;;;;;;5037294;28;20224;-42
2022/12/01 12:34:44;;;;;;;13.13;7.87;;;;;;;;;;5036970;28;20652;-43
2022/12/01 12:37:40;;;;;;;12.00;8.10;;;;;;;;;;5036950;28;20232;-41
2022/12/01 12:40:40;;;;;;;12.90;7.90;;;;;;;;;;5034472;28;20228;-41
2022/12/01 12:43:39;;;;;;;11.20;6.93;;;;;;;;;;5024266;28;20196;-42
2022/12/01 12:46:12;;;;;;;13.77;7.80;;;;;;;;;;5046015;28;20204;-42
2022/12/01 12:48:58;;;;;;;43.03;14.77;;;;;;;;;;5056048;28;20291;-42
2022/12/01 12:52:03;;;;;;;24.20;11.53;;;;;;;;;;5046634;28;20215;-42
2022/12/01 12:54:46;;;;;;;14.53;8.27;;;;;;;;;;5015937;28;20209;-41
2022/12/01 12:57:25;;;;;;;15.00;8.17;;;;;;;;;;5015876;28;20627;-42
2022/12/01 12:59:57;;;;;;;14.93;8.20;;;;;;;;;;5015434;28;20196;-41
2022/12/01 13:02:38;;;;;;;16.23;9.57;;;;;;;;;;5015690;28;20231;-41
2022/12/01 13:05:15;;;;;;;16.47;10.23;;;;;;;;;;5016854;28;20256;-41
2022/12/01 13:07:51;;;;;;;20.53;11.17;;;;;;;;;;5015852;28;20212;-42
2022/12/01 13:10:33;;;;;;;16.63;9.50;;;;;;;;;;5015668;28;20208;-41
2022/12/01 13:13:37;;;;;;;17.33;9.50;;;;;;;;;;5017146;28;20216;-41
2022/12/01 13:16:08;;;;;;;15.60;9.40;;;;;;;;;;5016861;28;20204;-42
2022/12/01 13:18:52;;;;;;;16.53;9.83;;;;;;;;;;5015552;28;20208;-45
2022/12/01 13:21:20;;;;;;;17.77;10.40;;;;;;;;;;5015321;28;20237;-43
2022/12/01 13:23:49;;;;;;;18.13;9.77;;;;;;;;;;5016222;28;20197;-42
2022/12/01 13:26:17;;;;;;;16.47;10.33;;;;;;;;;;5015575;28;20205;-42
2022/12/01 13:28:52;;;;;;;17.17;9.37;;;;;;;;;;5016436;28;20210;-42
2022/12/01 13:31:20;;;;;;;17.00;10.03;;;;;;;;;;5016312;28;20207;-41
2022/12/01 13:34:00;;;;;;;16.67;8.60;;;;;;;;;;5015307;28;20213;-43
2022/12/01 13:36:28;;;;;;;24.17;13.73;;;;;;;;;;5016602;28;20205;-41
2022/12/01 13:39:17;;;;;;;22.10;11.40;;;;;;;;;;5016216;28;20259;-42
2022/12/01 13:41:44;;;;;;;38.17;20.93;;;;;;;;;;5015748;28;20233;-43
2022/12/01 13:44:26;;;;;;;26.17;14.30;;;;;;;;;;5015905;28;20213;-41
2022/12/01 13:47:23;;;;;;;20.93;11.10;;;;;;;;;;5016245;28;20553;-42
2022/12/01 13:49:51;;;;;;;25.97;13.10;;;;;;;;;;5035882;28;20205;-41
2022/12/01 13:52:21;;;;;;;16.57;10.07;;;;;;;;;;5034878;28;20201;-42
2022/12/01 13:55:03;;;;;;;20.83;10.20;;;;;;;;;;5036023;28;20205;-42
2022/12/01 13:57:35;;;;;;;18.60;10.07;;;;;;;;;;5035374;28;20208;-42
2022/12/01 14:00:21;;;;;;;20.43;11.47;;;;;;;;;;5035183;28;20220;-42
2022/12/01 14:03:18;;;;;;;27.57;12.57;;;;;;;;;;5035592;28;20251;-42
2022/12/01 14:05:51;;;;;;;21.40;11.13;;;;;;;;;;5035564;28;20516;-41
2022/12/01 14:08:33;;;;;;;19.03;10.50;;;;;;;;;;5035405;28;20181;-40
2022/12/01 14:11:04;;;;;;;32.37;16.10;;;;;;;;;;5034604;28;20200;-40
2022/12/01 14:13:44;;;;;;;48.03;29.97;;;;;;;;;;5026464;28;20286;-41
2022/12/01 14:16:11;;;;;;;19.07;11.80;;;;;;;;;;5022891;28;20552;-44
2022/12/01 14:18:42;;;;;;;19.83;10.53;;;;;;;;;;5020478;28;20248;-42
2022/12/01 14:21:11;;;;;;;18.00;9.93;;;;;;;;;;5020561;28;20241;-41
2022/12/01 14:24:01;;;;;;;35.57;14.37;;;;;;;;;;5025841;28;20225;-41
2022/12/01 14:26:29;;;;;;;38.57;14.80;;;;;;;;;;5047998;28;20239;-40
2022/12/01 14:28:59;;;;;;;20.50;11.83;;;;;;;;;;5039401;28;20224;-41
2022/12/01 14:31:32;;;;;;;22.93;11.77;;;;;;;;;;5052955;28;20234;-42
2022/12/01 14:34:17;;;;;;;21.50;11.10;;;;;;;;;;5054321;28;20228;-42
2022/12/01 14:36:48;;;;;;;20.67;11.37;;;;;;;;;;5053171;28;20370;-41
2022/12/01 14:39:18;;;;;;;29.93;13.67;;;;;;;;;;5053042;28;20250;-44
2022/12/01 14:41:49;;;;;;;38.30;17.40;;;;;;;;;;5035494;28;20240;-41
2022/12/01 14:44:22;;;;;;;21.70;11.43;;;;;;;;;;5053787;28;20232;-42
2022/12/01 14:46:58;;;;;;;21.20;11.73;;;;;;;;;;5053226;28;20606;-41
2022/12/01 14:49:31;;;;;;;18.13;10.70;;;;;;;;;;5053931;28;20702;-42
2022/12/01 14:52:03;;;;;;;18.03;9.67;;;;;;;;;;5053909;28;20651;-41
2022/12/01 14:54:38;;;;;;;19.60;10.40;;;;;;;;;;5052919;28;20278;-41
2022/12/01 14:57:05;;;;;;;31.37;16.63;;;;;;;;;;5052885;28;20230;-41
2022/12/01 14:59:38;;;;;;;103.20;49.07;;;;;;;;;;5014007;28;20224;-42
2022/12/01 15:02:10;;;;;;;124.13;55.60;;;;;;;;;;5014479;28;20245;-42